LQTZ/TZL METAR and TAF weather

Enter ICAO airport designator
Station Type Date Time Source
LQTZ METAR 2020/07/06 07:30 UTC NOAA

LQTZ 060730Z VRB02KT 9999 FEW035 23/19 Q1013


Station Type Date Time Source
LQTZ Decoded METAR 2020/07/06 07:30 UTC NOAA

Tuzla, Bosnia and Herzegovina (LQTZ) 44-33N 018-42E
Jul 06, 2020 - 03:30 AM EDT / 2020.07.06 0730 UTC
Wind: Variable at 2 MPH (2 KT):0
Visibility: greater than 7 mile(s):0
Sky conditions: mostly clear
Temperature: 73 F (23 C)
Dew Point: 66 F (19 C)
Relative Humidity: 78%
Pressure (altimeter): 29.91 in. Hg (1013 hPa)
ob: LQTZ 060730Z VRB02KT 9999 FEW035 23/19 Q1013
cycle: 7

Station Type Date Time Source
LQTZ TAF 2020/07/06 06:12 UTC NOAA

TAF TAF LQTZ 060500Z 0606/0706 07006KT CAVOK TX32/0614Z TN14/0703Z
TEMPO 0700/0703 30015G30KT SHRA FEW015 FEW030TCU SCT045
TEMPO 0700/0706 30010KT 4000 RA

Example: see airport list